Time;durP1;ratioP1;P1;durP2;ratioP2;P2;SDS_P1;SDS_P2;PMS_P1;PMS_P2;Temp;Humidity;BMP_temperature;BMP_pressure;BME280_temperature;BME280_humidity;BME280_pressure;Samples;Min_cycle;Max_cycle;Signal;HPM_P1;HPM_P2
2021/12/26 00:19:28;;;;;;;1.75;1.50;;;;;;;;;;4649212;27;20135;-64
2021/12/26 00:21:54;;;;;;;1.67;1.58;;;;;;;;;;4276745;33;20107;-66
2021/12/26 00:24:20;;;;;;;1.70;1.60;;;;;;;;;;4288879;33;20127;-64
2021/12/26 00:26:46;;;;;;;2.37;1.60;;;;;;;;;;4288770;33;20506;-66
2021/12/26 00:29:13;;;;;;;1.70;1.60;;;;;;;;;;4287126;33;20503;-65
2021/12/26 00:31:39;;;;;;;1.70;1.60;;;;;;;;;;4288770;33;20100;-65
2021/12/26 00:34:05;;;;;;;1.50;1.40;;;;;;;;;;4288732;33;20458;-64
2021/12/26 00:36:31;;;;;;;1.60;1.50;;;;;;;;;;4288704;33;20617;-65
2021/12/26 00:38:57;;;;;;;1.70;1.58;;;;;;;;;;4288391;33;20120;-67
2021/12/26 00:41:23;;;;;;;1.80;1.70;;;;;;;;;;4288632;33;20091;-68
2021/12/26 00:43:49;;;;;;;1.65;1.45;;;;;;;;;;4288723;33;20102;-68
2021/12/26 00:46:15;;;;;;;1.92;1.65;;;;;;;;;;4287051;33;20191;-67
2021/12/26 00:48:42;;;;;;;1.60;1.50;;;;;;;;;;4288451;33;20103;-71
2021/12/26 00:51:08;;;;;;;1.75;1.65;;;;;;;;;;4288569;33;20111;-69
2021/12/26 00:53:34;;;;;;;1.75;1.65;;;;;;;;;;4287111;33;20554;-70
2021/12/26 00:56:00;;;;;;;2.17;1.70;;;;;;;;;;4287213;33;20204;-70
2021/12/26 00:58:26;;;;;;;1.98;1.80;;;;;;;;;;4290827;33;20104;-69
2021/12/26 01:00:53;;;;;;;1.80;1.70;;;;;;;;;;4290712;33;20110;-68
2021/12/26 01:03:20;;;;;;;2.37;2.00;;;;;;;;;;4290540;33;20096;-68
2021/12/26 01:05:49;;;;;;;2.20;1.90;;;;;;;;;;4277521;33;20112;-68
2021/12/26 01:08:18;;;;;;;2.00;1.90;;;;;;;;;;4290561;33;20124;-68
2021/12/26 01:10:49;;;;;;;2.00;1.85;;;;;;;;;;4290561;33;20553;-67
2021/12/26 01:13:29;;;;;;;3.45;2.60;;;;;;;;;;4290541;33;20100;-67
2021/12/26 01:15:58;;;;;;;2.35;2.10;;;;;;;;;;4289501;33;20103;-65
2021/12/26 01:18:27;;;;;;;3.22;2.67;;;;;;;;;;4290274;33;20084;-66
2021/12/26 01:21:39;;;;;;;2.87;2.42;;;;;;;;;;4290514;33;20099;-68
2021/12/26 01:23:40;;;;;;;3.90;2.40;;;;;;;;;;4262500;33;20120;-65
2021/12/26 01:26:06;;;;;;;3.17;2.50;;;;;;;;;;4275990;33;20107;-66
2021/12/26 01:28:33;;;;;;;3.67;3.33;;;;;;;;;;4262982;33;20127;-66
2021/12/26 01:30:59;;;;;;;3.10;2.80;;;;;;;;;;4275933;33;20116;-68
2021/12/26 01:33:26;;;;;;;3.87;2.95;;;;;;;;;;4275946;33;20104;-67
2021/12/26 01:35:53;;;;;;;3.20;3.00;;;;;;;;;;4286578;33;20116;-67
2021/12/26 01:38:20;;;;;;;3.85;3.45;;;;;;;;;;4262804;33;20677;-66
2021/12/26 01:40:50;;;;;;;3.92;3.62;;;;;;;;;;4275885;33;20096;-66
2021/12/26 01:43:18;;;;;;;3.72;3.42;;;;;;;;;;4275891;33;20529;-67
2021/12/26 01:45:45;;;;;;;4.50;3.95;;;;;;;;;;4275911;33;20107;-67
2021/12/26 01:48:12;;;;;;;3.92;3.62;;;;;;;;;;4286315;33;20143;-67
2021/12/26 01:50:39;;;;;;;3.80;3.50;;;;;;;;;;4275842;33;20095;-66
2021/12/26 01:53:05;;;;;;;4.07;3.67;;;;;;;;;;4275914;33;20117;-67
2021/12/26 01:56:05;;;;;;;5.30;4.62;;;;;;;;;;4277517;33;20519;-67
2021/12/26 01:58:28;;;;;;;6.80;6.10;;;;;;;;;;4288414;33;20183;-67
2021/12/26 02:00:59;;;;;;;6.95;6.25;;;;;;;;;;4290156;33;20100;-66
2021/12/26 02:03:26;;;;;;;7.50;6.80;;;;;;;;;;4276701;33;20175;-67
2021/12/26 02:05:52;;;;;;;8.10;7.30;;;;;;;;;;4264845;33;20130;-66
2021/12/26 02:08:18;;;;;;;9.70;7.53;;;;;;;;;;4276030;33;20099;-67
2021/12/26 02:10:45;;;;;;;8.25;7.45;;;;;;;;;;4276939;33;20526;-67
2021/12/26 02:13:11;;;;;;;10.13;7.53;;;;;;;;;;4289992;33;20103;-67
2021/12/26 02:15:37;;;;;;;8.70;7.80;;;;;;;;;;4290005;33;20210;-67
2021/12/26 02:18:05;;;;;;;8.48;7.65;;;;;;;;;;4289897;33;20191;-68
2021/12/26 02:20:48;;;;;;;8.20;7.20;;;;;;;;;;4289995;33;21019;-67
2021/12/26 02:23:25;;;;;;;7.78;7.07;;;;;;;;;;4289896;33;20582;-68
2021/12/26 02:28:25;;;;;;;7.50;6.75;;;;;;;;;;4289895;33;20522;-68
2021/12/26 02:30:52;;;;;;;7.40;6.65;;;;;;;;;;4289930;33;20112;-68
2021/12/26 02:33:18;;;;;;;7.80;7.00;;;;;;;;;;4290013;33;20221;-67
2021/12/26 02:35:45;;;;;;;7.55;6.85;;;;;;;;;;4290153;33;20134;-67
2021/12/26 02:38:12;;;;;;;7.30;6.60;;;;;;;;;;4290080;33;20550;-67
2021/12/26 02:40:39;;;;;;;7.62;6.90;;;;;;;;;;4264878;33;20551;-67
2021/12/26 02:43:06;;;;;;;6.95;6.28;;;;;;;;;;4276441;33;20100;-67
2021/12/26 02:45:33;;;;;;;7.85;6.85;;;;;;;;;;4289758;33;20439;-67
2021/12/26 02:47:59;;;;;;;8.18;6.65;;;;;;;;;;4289776;33;20550;-67
2021/12/26 02:50:27;;;;;;;7.70;6.70;;;;;;;;;;4289596;33;20102;-67
2021/12/26 02:52:56;;;;;;;7.80;7.03;;;;;;;;;;4289668;33;20119;-68
2021/12/26 02:55:23;;;;;;;7.20;6.43;;;;;;;;;;4289739;33;20210;-67
2021/12/26 02:58:04;;;;;;;7.03;6.32;;;;;;;;;;4276511;33;20119;-67
2021/12/26 03:00:32;;;;;;;7.20;6.50;;;;;;;;;;4289619;33;20207;-68
2021/12/26 03:03:01;;;;;;;6.97;6.28;;;;;;;;;;4288498;33;20108;-68
2021/12/26 03:05:31;;;;;;;6.72;5.90;;;;;;;;;;4264444;33;20746;-68
2021/12/26 03:07:57;;;;;;;6.68;5.97;;;;;;;;;;4289584;33;20092;-68
2021/12/26 03:10:25;;;;;;;6.72;6.03;;;;;;;;;;4288270;33;20120;-67
2021/12/26 03:12:55;;;;;;;6.30;5.65;;;;;;;;;;4276572;33;20111;-68
2021/12/26 03:15:22;;;;;;;6.10;5.57;;;;;;;;;;4264590;33;20088;-68
2021/12/26 03:17:48;;;;;;;6.12;5.53;;;;;;;;;;4289389;33;20115;-68
2021/12/26 03:20:19;;;;;;;6.50;5.40;;;;;;;;;;4287652;33;20570;-67
2021/12/26 03:22:45;;;;;;;6.80;6.10;;;;;;;;;;4289383;33;20139;-68
2021/12/26 03:25:14;;;;;;;6.53;5.70;;;;;;;;;;4289370;33;20221;-67
2021/12/26 03:27:40;;;;;;;5.95;5.45;;;;;;;;;;4289337;33;20134;-68
2021/12/26 03:30:11;;;;;;;6.00;5.40;;;;;;;;;;4275939;33;20198;-69
2021/12/26 03:32:37;;;;;;;6.32;5.72;;;;;;;;;;4289435;33;20179;-68
2021/12/26 03:35:04;;;;;;;6.00;5.45;;;;;;;;;;4275849;33;20543;-67
2021/12/26 03:37:30;;;;;;;7.37;6.45;;;;;;;;;;4289243;33;20189;-70
2021/12/26 03:39:56;;;;;;;7.53;5.57;;;;;;;;;;4287884;33;20142;-69
2021/12/26 03:42:22;;;;;;;6.93;6.15;;;;;;;;;;4275768;33;20629;-69
2021/12/26 03:44:49;;;;;;;6.22;5.65;;;;;;;;;;4289233;33;20170;-69
2021/12/26 03:47:16;;;;;;;9.95;7.40;;;;;;;;;;4276037;33;20514;-68
2021/12/26 03:49:42;;;;;;;8.48;7.35;;;;;;;;;;4275975;33;20539;-67
2021/12/26 03:52:08;;;;;;;10.07;7.95;;;;;;;;;;4289104;33;20119;-67
2021/12/26 03:54:34;;;;;;;10.88;7.75;;;;;;;;;;4289014;33;20613;-65
2021/12/26 03:57:01;;;;;;;8.85;7.47;;;;;;;;;;4289046;33;20190;-68
2021/12/26 03:59:27;;;;;;;11.52;8.05;;;;;;;;;;4288935;33;20109;-65
2021/12/26 04:01:55;;;;;;;11.07;8.27;;;;;;;;;;4288991;33;20203;-64
2021/12/26 04:04:21;;;;;;;9.50;7.32;;;;;;;;;;4263972;33;20129;-65
2021/12/26 04:06:47;;;;;;;8.68;7.60;;;;;;;;;;4289159;33;20186;-67
2021/12/26 04:09:14;;;;;;;10.32;8.43;;;;;;;;;;4275730;33;20272;-67
2021/12/26 04:11:43;;;;;;;9.43;7.50;;;;;;;;;;4275528;33;20195;-67
2021/12/26 04:14:10;;;;;;;10.25;7.95;;;;;;;;;;4275843;33;20127;-66
2021/12/26 04:16:36;;;;;;;8.98;8.02;;;;;;;;;;4275694;33;20111;-69
2021/12/26 04:19:03;;;;;;;7.97;6.97;;;;;;;;;;4275216;33;20107;-68
2021/12/26 04:21:29;;;;;;;7.37;6.60;;;;;;;;;;4288824;33;20119;-66
2021/12/26 04:23:55;;;;;;;7.35;6.65;;;;;;;;;;4288658;33;20527;-66
2021/12/26 04:26:22;;;;;;;7.25;5.80;;;;;;;;;;4288673;33;20123;-64
2021/12/26 04:28:48;;;;;;;6.62;5.80;;;;;;;;;;4288777;33;20107;-67
2021/12/26 04:31:15;;;;;;;6.68;5.80;;;;;;;;;;4288618;33;20116;-66
2021/12/26 04:33:42;;;;;;;6.15;5.55;;;;;;;;;;4290836;33;20135;-65
2021/12/26 04:36:08;;;;;;;6.32;5.55;;;;;;;;;;4290808;33;20569;-65
2021/12/26 04:38:35;;;;;;;6.37;5.18;;;;;;;;;;4290712;33;20122;-65
2021/12/26 04:41:04;;;;;;;5.82;5.32;;;;;;;;;;4290820;33;20095;-64
2021/12/26 04:43:33;;;;;;;5.85;5.25;;;;;;;;;;4290623;33;20108;-64
2021/12/26 04:46:02;;;;;;;7.32;5.50;;;;;;;;;;4290777;33;20111;-66
2021/12/26 04:48:28;;;;;;;6.57;5.85;;;;;;;;;;4290738;33;20106;-68
2021/12/26 04:50:54;;;;;;;6.82;6.10;;;;;;;;;;4277362;33;20086;-67
2021/12/26 04:53:20;;;;;;;8.18;6.07;;;;;;;;;;4289094;33;20201;-66
2021/12/26 04:55:47;;;;;;;8.77;6.70;;;;;;;;;;4290850;33;20514;-66
2021/12/26 04:58:13;;;;;;;9.70;6.55;;;;;;;;;;4265660;33;20110;-66
2021/12/26 05:00:39;;;;;;;6.90;6.20;;;;;;;;;;4277181;33;20186;-67
2021/12/26 05:03:07;;;;;;;6.65;6.05;;;;;;;;;;4277198;33;20111;-67
2021/12/26 05:05:34;;;;;;;6.95;6.05;;;;;;;;;;4277308;33;20111;-67
2021/12/26 05:08:00;;;;;;;7.72;6.35;;;;;;;;;;4290521;33;20123;-67
2021/12/26 05:10:28;;;;;;;6.47;5.87;;;;;;;;;;4277086;33;20122;-67
2021/12/26 05:12:59;;;;;;;7.30;6.60;;;;;;;;;;4288962;33;20119;-68
2021/12/26 05:15:25;;;;;;;8.10;6.30;;;;;;;;;;4277396;33;20119;-67
2021/12/26 05:17:52;;;;;;;6.87;5.90;;;;;;;;;;4275615;33;20210;-66
2021/12/26 05:20:19;;;;;;;6.18;5.57;;;;;;;;;;4263442;33;20107;-67
2021/12/26 05:22:46;;;;;;;9.05;6.50;;;;;;;;;;4288841;33;20574;-68
2021/12/26 05:25:12;;;;;;;6.25;5.65;;;;;;;;;;4289357;33;20088;-67
2021/12/26 05:27:39;;;;;;;7.20;6.50;;;;;;;;;;4289201;33;20100;-67
2021/12/26 05:30:08;;;;;;;7.47;6.35;;;;;;;;;;4289108;33;20120;-68
2021/12/26 05:32:34;;;;;;;6.97;5.47;;;;;;;;;;4275957;33;20111;-67
2021/12/26 05:35:00;;;;;;;6.57;5.87;;;;;;;;;;4276302;33;20120;-67
2021/12/26 05:37:26;;;;;;;6.78;5.62;;;;;;;;;;4275581;33;20103;-66
2021/12/26 05:39:53;;;;;;;6.53;5.75;;;;;;;;;;4288907;33;20127;-67
2021/12/26 05:42:20;;;;;;;6.22;5.62;;;;;;;;;;4276019;33;20107;-68
2021/12/26 05:44:48;;;;;;;6.95;6.20;;;;;;;;;;4288821;33;20555;-68
2021/12/26 05:47:14;;;;;;;6.07;5.45;;;;;;;;;;4287415;33;20102;-66
2021/12/26 05:49:40;;;;;;;7.00;6.30;;;;;;;;;;4289037;33;20096;-67
2021/12/26 05:52:07;;;;;;;7.53;6.72;;;;;;;;;;4287344;33;20116;-67
2021/12/26 05:54:33;;;;;;;9.50;7.22;;;;;;;;;;4275509;33;20743;-67
2021/12/26 05:56:59;;;;;;;7.07;6.32;;;;;;;;;;4288848;33;20104;-68
2021/12/26 05:59:25;;;;;;;8.00;6.72;;;;;;;;;;4288655;33;20193;-68
2021/12/26 06:01:52;;;;;;;10.32;7.40;;;;;;;;;;4287291;33;20202;-68
2021/12/26 06:04:18;;;;;;;7.90;6.50;;;;;;;;;;4287338;33;20111;-68
2021/12/26 06:06:44;;;;;;;10.40;7.25;;;;;;;;;;4288782;33;20213;-66
2021/12/26 06:09:11;;;;;;;10.13;7.85;;;;;;;;;;4275479;33;20131;-66
2021/12/26 06:11:37;;;;;;;15.18;12.23;;;;;;;;;;4288741;33;20080;-64
2021/12/26 06:14:03;;;;;;;15.02;8.43;;;;;;;;;;4275348;33;20121;-64
2021/12/26 06:16:29;;;;;;;9.07;8.05;;;;;;;;;;4288721;33;20111;-64
2021/12/26 06:18:55;;;;;;;9.85;7.82;;;;;;;;;;4288436;33;20136;-65
2021/12/26 06:21:22;;;;;;;12.52;7.68;;;;;;;;;;4288900;33;20091;-64
2021/12/26 06:23:51;;;;;;;9.32;6.97;;;;;;;;;;4275121;33;20534;-64
2021/12/26 06:26:18;;;;;;;6.62;5.75;;;;;;;;;;4288538;33;20112;-64
2021/12/26 06:28:45;;;;;;;6.70;5.85;;;;;;;;;;4288521;33;20447;-65
2021/12/26 06:31:11;;;;;;;6.20;5.60;;;;;;;;;;4288930;33;20504;-64
2021/12/26 06:33:38;;;;;;;6.07;5.47;;;;;;;;;;4288054;33;20206;-64
2021/12/26 06:36:05;;;;;;;6.53;5.90;;;;;;;;;;4289897;33;20435;-66
2021/12/26 06:38:33;;;;;;;7.43;5.90;;;;;;;;;;4288066;33;20112;-67
2021/12/26 06:41:01;;;;;;;6.60;5.95;;;;;;;;;;4289873;33;20119;-66
2021/12/26 06:43:27;;;;;;;6.43;5.75;;;;;;;;;;4288096;33;20202;-66
2021/12/26 06:45:54;;;;;;;8.35;6.15;;;;;;;;;;4290025;33;20115;-66
2021/12/26 06:48:20;;;;;;;5.72;5.15;;;;;;;;;;4276393;33;20169;-67
2021/12/26 06:50:47;;;;;;;7.37;5.90;;;;;;;;;;4289770;33;20103;-69
2021/12/26 06:53:13;;;;;;;5.55;5.05;;;;;;;;;;4287613;33;20104;-68
2021/12/26 06:55:40;;;;;;;5.68;4.87;;;;;;;;;;4275902;33;20559;-68
2021/12/26 06:58:06;;;;;;;6.00;4.93;;;;;;;;;;4287901;33;20112;-67
2021/12/26 07:00:32;;;;;;;5.93;5.25;;;;;;;;;;4289661;33;20433;-68
2021/12/26 07:02:58;;;;;;;5.80;4.95;;;;;;;;;;4289565;33;20084;-67
2021/12/26 07:05:24;;;;;;;7.97;5.10;;;;;;;;;;4289421;33;20106;-68
2021/12/26 07:07:52;;;;;;;5.68;5.07;;;;;;;;;;4289805;33;20437;-65
2021/12/26 07:10:18;;;;;;;5.82;4.50;;;;;;;;;;4289492;33;20140;-66
2021/12/26 07:12:45;;;;;;;5.87;5.07;;;;;;;;;;4289441;33;20114;-65
2021/12/26 07:15:11;;;;;;;6.40;5.12;;;;;;;;;;4276161;33;20194;-66
2021/12/26 07:17:38;;;;;;;6.87;5.05;;;;;;;;;;4288085;33;20618;-66
2021/12/26 07:20:05;;;;;;;5.03;4.53;;;;;;;;;;4289523;33;20206;-65
2021/12/26 07:22:31;;;;;;;5.70;5.05;;;;;;;;;;4276103;33;20449;-66
2021/12/26 07:24:57;;;;;;;6.05;5.43;;;;;;;;;;4289551;33;20100;-65
2021/12/26 07:27:24;;;;;;;5.28;4.50;;;;;;;;;;4288502;33;20108;-68
2021/12/26 07:29:50;;;;;;;6.10;5.50;;;;;;;;;;4276031;33;20140;-68
2021/12/26 07:32:16;;;;;;;5.37;4.87;;;;;;;;;;4289285;33;20096;-70
2021/12/26 07:34:42;;;;;;;6.32;5.20;;;;;;;;;;4289215;33;20119;-68
2021/12/26 07:37:09;;;;;;;5.70;4.80;;;;;;;;;;4289280;33;20202;-68
2021/12/26 07:39:54;;;;;;;6.55;4.95;;;;;;;;;;4275854;33;20254;-71
2021/12/26 07:42:20;;;;;;;6.12;5.50;;;;;;;;;;4275761;33;20124;-68
2021/12/26 07:44:46;;;;;;;6.35;5.37;;;;;;;;;;4275839;33;20471;-67
2021/12/26 07:47:13;;;;;;;5.47;4.97;;;;;;;;;;4289118;33;20145;-68
2021/12/26 07:49:39;;;;;;;5.68;4.75;;;;;;;;;;4275729;33;20104;-69
2021/12/26 07:52:11;;;;;;;6.37;5.28;;;;;;;;;;4276005;33;20103;-67
2021/12/26 07:54:39;;;;;;;5.12;4.40;;;;;;;;;;4289077;33;20586;-67
2021/12/26 07:57:06;;;;;;;4.93;4.43;;;;;;;;;;4289042;33;20552;-68
2021/12/26 07:59:33;;;;;;;5.25;4.75;;;;;;;;;;4287366;33;20542;-67
2021/12/26 08:02:00;;;;;;;4.95;4.45;;;;;;;;;;4275666;33;20131;-67
2021/12/26 08:04:26;;;;;;;5.25;4.62;;;;;;;;;;4275722;33;20095;-67
2021/12/26 08:06:57;;;;;;;5.72;4.85;;;;;;;;;;4274566;33;20088;-68
2021/12/26 08:09:23;;;;;;;4.87;4.32;;;;;;;;;;4288854;33;20123;-69
2021/12/26 08:11:49;;;;;;;5.87;4.50;;;;;;;;;;4288857;33;20135;-68
2021/12/26 08:14:15;;;;;;;5.60;4.40;;;;;;;;;;4275319;33;20116;-78
2021/12/26 08:16:41;;;;;;;5.15;4.30;;;;;;;;;;4289177;33;20107;-73
2021/12/26 08:19:08;;;;;;;5.18;4.50;;;;;;;;;;4263094;33;20179;-73
2021/12/26 08:21:34;;;;;;;5.55;4.93;;;;;;;;;;4287394;33;20088;-73
2021/12/26 08:24:02;;;;;;;5.32;4.82;;;;;;;;;;4288439;33;20134;-73
2021/12/26 08:26:28;;;;;;;5.85;5.25;;;;;;;;;;4275672;33;20104;-73
2021/12/26 08:28:54;;;;;;;5.55;4.75;;;;;;;;;;4275446;33;20100;-73
2021/12/26 08:31:21;;;;;;;5.20;4.60;;;;;;;;;;4263785;33;20131;-73
2021/12/26 08:33:47;;;;;;;6.20;5.32;;;;;;;;;;4287171;33;20115;-73
2021/12/26 08:36:14;;;;;;;5.75;4.78;;;;;;;;;;4288730;33;20101;-73
2021/12/26 08:38:40;;;;;;;5.45;4.95;;;;;;;;;;4275449;33;20143;-68
2021/12/26 08:41:07;;;;;;;5.50;5.00;;;;;;;;;;4288755;33;20200;-68
2021/12/26 08:43:33;;;;;;;6.00;5.40;;;;;;;;;;4275092;33;20463;-68
2021/12/26 08:45:59;;;;;;;5.97;5.37;;;;;;;;;;4288453;33;20499;-68
2021/12/26 08:48:26;;;;;;;7.03;5.00;;;;;;;;;;4275213;33;20095;-67
2021/12/26 08:50:55;;;;;;;5.30;4.80;;;;;;;;;;4288449;33;20451;-68
2021/12/26 08:53:24;;;;;;;5.62;5.12;;;;;;;;;;4275013;33;20186;-65
2021/12/26 08:55:50;;;;;;;6.32;5.00;;;;;;;;;;4288402;33;20135;-66
2021/12/26 08:58:16;;;;;;;5.30;4.78;;;;;;;;;;4288278;33;20099;-67
2021/12/26 09:00:42;;;;;;;8.18;5.05;;;;;;;;;;4274942;33;20593;-66
2021/12/26 09:03:09;;;;;;;7.00;5.18;;;;;;;;;;4288420;33;20183;-67
2021/12/26 09:05:35;;;;;;;5.55;4.85;;;;;;;;;;4274967;33;20425;-71
2021/12/26 09:08:06;;;;;;;6.50;5.40;;;;;;;;;;4263020;33;20557;-64
2021/12/26 09:10:32;;;;;;;5.43;4.85;;;;;;;;;;4275618;33;20527;-65
2021/12/26 09:12:58;;;;;;;7.28;5.15;;;;;;;;;;4288905;33;20128;-66
2021/12/26 09:15:24;;;;;;;5.80;5.20;;;;;;;;;;4288498;33;20115;-67
2021/12/26 09:17:50;;;;;;;5.70;5.07;;;;;;;;;;4289442;33;20120;-67
2021/12/26 09:20:16;;;;;;;6.55;5.40;;;;;;;;;;4290257;33;20119;-66
2021/12/26 09:23:22;;;;;;;6.03;5.43;;;;;;;;;;4279264;33;20151;-66
2021/12/26 09:25:48;;;;;;;5.82;5.25;;;;;;;;;;4290458;33;20150;-66
2021/12/26 09:28:15;;;;;;;5.72;5.15;;;;;;;;;;4290337;33;20135;-69
2021/12/26 09:30:41;;;;;;;5.75;5.15;;;;;;;;;;4277140;33;20543;-68
2021/12/26 09:33:07;;;;;;;5.97;5.37;;;;;;;;;;4276826;33;20525;-68
2021/12/26 09:35:33;;;;;;;5.68;5.07;;;;;;;;;;4290137;33;20115;-68
2021/12/26 09:38:00;;;;;;;5.57;4.62;;;;;;;;;;4265171;33;20123;-68
2021/12/26 09:40:26;;;;;;;5.40;4.90;;;;;;;;;;4276993;33;20174;-68
2021/12/26 09:42:53;;;;;;;6.15;5.10;;;;;;;;;;4276980;33;20624;-69
2021/12/26 09:45:19;;;;;;;6.28;5.30;;;;;;;;;;4264953;33;20107;-67
2021/12/26 09:47:49;;;;;;;6.10;5.50;;;;;;;;;;4290342;33;20547;-70
2021/12/26 09:50:18;;;;;;;6.28;5.22;;;;;;;;;;4290229;33;20107;-72
2021/12/26 09:52:45;;;;;;;6.35;5.45;;;;;;;;;;4277361;33;20221;-76
2021/12/26 09:55:12;;;;;;;7.07;5.75;;;;;;;;;;4276870;33;20518;-76
2021/12/26 09:57:39;;;;;;;6.90;5.57;;;;;;;;;;4276842;33;20112;-69
2021/12/26 10:00:17;;;;;;;8.05;5.37;;;;;;;;;;4290277;33;20104;-70
2021/12/26 10:02:43;;;;;;;8.07;6.00;;;;;;;;;;4289716;33;20194;-71
2021/12/26 10:05:09;;;;;;;7.12;6.05;;;;;;;;;;4290089;33;20185;-71
2021/12/26 10:07:35;;;;;;;9.43;5.97;;;;;;;;;;4289686;33;20146;-70
2021/12/26 10:10:09;;;;;;;9.95;5.90;;;;;;;;;;4287927;33;20183;-70
2021/12/26 10:12:39;;;;;;;8.25;5.90;;;;;;;;;;4274526;33;20609;-70
2021/12/26 10:15:06;;;;;;;8.63;5.80;;;;;;;;;;4287859;33;20442;-70
2021/12/26 10:17:32;;;;;;;9.73;5.95;;;;;;;;;;4274387;33;20528;-70
2021/12/26 10:20:07;;;;;;;8.00;6.20;;;;;;;;;;4274836;33;20107;-70
2021/12/26 10:23:25;;;;;;;7.97;5.93;;;;;;;;;;4276797;33;20119;-70
2021/12/26 10:25:51;;;;;;;8.07;6.05;;;;;;;;;;4288702;33;20108;-69
2021/12/26 10:28:17;;;;;;;8.32;6.80;;;;;;;;;;4275043;33;20116;-70
2021/12/26 10:30:44;;;;;;;7.32;6.00;;;;;;;;;;4288920;33;20100;-70
2021/12/26 10:33:10;;;;;;;5.28;4.57;;;;;;;;;;4289691;33;20115;-70
2021/12/26 10:35:36;;;;;;;6.60;5.00;;;;;;;;;;4264614;33;20448;-70
2021/12/26 10:38:02;;;;;;;6.30;5.43;;;;;;;;;;4289363;33;20103;-70
2021/12/26 10:40:33;;;;;;;5.55;4.95;;;;;;;;;;4276848;33;20124;-69
2021/12/26 10:43:01;;;;;;;5.72;5.05;;;;;;;;;;4289800;33;20106;-70
2021/12/26 10:45:29;;;;;;;6.47;4.78;;;;;;;;;;4276400;33;20103;-70
2021/12/26 10:48:01;;;;;;;6.87;5.15;;;;;;;;;;4276659;33;20099;-71
2021/12/26 10:50:29;;;;;;;8.68;5.22;;;;;;;;;;4288391;33;20106;-71
2021/12/26 10:53:00;;;;;;;5.80;4.60;;;;;;;;;;4289557;33;20099;-69
2021/12/26 10:55:46;;;;;;;5.60;5.00;;;;;;;;;;4276617;33;20180;-68
2021/12/26 10:58:13;;;;;;;;;;;;;;;;;;4276979;33;20117;-71
2021/12/26 11:00:41;;;;;;;6.10;5.37;;;;;;;;;;4288243;33;19998;-71
2021/12/26 11:03:13;;;;;;;6.97;5.53;;;;;;;;;;4276528;33;20267;-71
2021/12/26 11:05:44;;;;;;;9.02;6.93;;;;;;;;;;4276416;33;20108;-72
2021/12/26 11:08:18;;;;;;;6.47;5.87;;;;;;;;;;4289636;33;20536;-71
2021/12/26 11:10:50;;;;;;;5.60;5.00;;;;;;;;;;4289661;33;20463;-71
2021/12/26 11:13:23;;;;;;;6.35;5.28;;;;;;;;;;4276033;33;20502;-70
2021/12/26 11:15:54;;;;;;;8.25;5.07;;;;;;;;;;4276478;33;20115;-69
2021/12/26 11:18:20;;;;;;;5.57;5.05;;;;;;;;;;4289453;33;20112;-69
2021/12/26 11:20:52;;;;;;;5.37;4.87;;;;;;;;;;4264080;33;20123;-70
2021/12/26 11:23:23;;;;;;;5.15;4.57;;;;;;;;;;4275611;33;20087;-69
2021/12/26 11:25:54;;;;;;;4.85;4.35;;;;;;;;;;4276177;33;20103;-71
2021/12/26 11:28:26;;;;;;;4.90;3.97;;;;;;;;;;4289498;33;20112;-70
2021/12/26 11:30:54;;;;;;;4.95;4.43;;;;;;;;;;4276515;33;20095;-70
2021/12/26 11:33:21;;;;;;;6.47;4.82;;;;;;;;;;4275875;33;20095;-69
2021/12/26 11:35:49;;;;;;;5.55;4.87;;;;;;;;;;4289346;33;20123;-70
2021/12/26 11:38:19;;;;;;;6.80;4.35;;;;;;;;;;4289195;33;20120;-72
2021/12/26 11:40:46;;;;;;;14.30;4.97;;;;;;;;;;4276374;33;20115;-68
2021/12/26 11:43:21;;;;;;;4.97;4.25;;;;;;;;;;4276008;33;20115;-70
2021/12/26 11:46:22;;;;;;;5.22;4.68;;;;;;;;;;4288594;33;20127;-71
2021/12/26 11:48:55;;;;;;;5.93;4.85;;;;;;;;;;4296241;33;20126;-72
2021/12/26 11:51:28;;;;;;;4.75;4.22;;;;;;;;;;4290867;33;20195;-70
2021/12/26 11:54:22;;;;;;;5.55;4.72;;;;;;;;;;4287715;33;20130;-70
2021/12/26 11:57:28;;;;;;;7.05;4.62;;;;;;;;;;4273922;33;20516;-71
2021/12/26 12:00:24;;;;;;;5.25;4.75;;;;;;;;;;4233554;33;20110;-71
2021/12/26 12:02:56;;;;;;;8.73;6.15;;;;;;;;;;4274801;33;20120;-70
2021/12/26 12:05:25;;;;;;;7.53;6.07;;;;;;;;;;4273970;33;20507;-71
2021/12/26 12:07:58;;;;;;;9.15;7.68;;;;;;;;;;4288744;33;20806;-70
2021/12/26 12:10:42;;;;;;;10.63;8.68;;;;;;;;;;4287400;33;20431;-71
2021/12/26 12:13:22;;;;;;;6.75;6.03;;;;;;;;;;4274629;33;20491;-73
2021/12/26 12:16:00;;;;;;;8.20;6.70;;;;;;;;;;4272475;33;20093;-71
2021/12/26 12:18:37;;;;;;;12.23;10.60;;;;;;;;;;4274559;33;20119;-72
2021/12/26 12:21:26;;;;;;;14.68;13.07;;;;;;;;;;4273798;33;20272;-73
2021/12/26 12:24:25;;;;;;;19.60;16.10;;;;;;;;;;4280151;33;20185;-72
2021/12/26 12:27:00;;;;;;;24.83;20.55;;;;;;;;;;4282023;33;20583;-72
2021/12/26 12:29:29;;;;;;;17.00;13.90;;;;;;;;;;4294924;33;20091;-70
2021/12/26 12:32:07;;;;;;;16.10;13.98;;;;;;;;;;4295639;33;20110;-72
2021/12/26 12:34:53;;;;;;;10.98;9.75;;;;;;;;;;4292334;33;20119;-71
2021/12/26 12:37:48;;;;;;;11.77;8.55;;;;;;;;;;4287936;33;20628;-68
2021/12/26 12:40:29;;;;;;;8.38;7.40;;;;;;;;;;4270069;33;20551;-69
2021/12/26 12:43:08;;;;;;;9.80;7.97;;;;;;;;;;4294713;33;20847;-69
2021/12/26 12:46:04;;;;;;;8.10;7.30;;;;;;;;;;4293015;33;20083;-74
2021/12/26 12:48:44;;;;;;;9.73;8.82;;;;;;;;;;4290190;33;20098;-72
2021/12/26 12:51:18;;;;;;;10.18;7.97;;;;;;;;;;4294966;33;20106;-73
2021/12/26 12:53:46;;;;;;;11.80;10.15;;;;;;;;;;4295527;33;20130;-68
2021/12/26 12:56:30;;;;;;;10.45;9.23;;;;;;;;;;4271925;33;20093;-71
2021/12/26 12:59:20;;;;;;;13.90;12.18;;;;;;;;;;4295025;33;20122;-70
2021/12/26 13:02:06;;;;;;;13.45;11.85;;;;;;;;;;4286627;33;20176;-72
2021/12/26 13:04:45;;;;;;;15.25;13.02;;;;;;;;;;4274463;33;20500;-71
2021/12/26 13:07:16;;;;;;;18.30;16.30;;;;;;;;;;4264352;33;20214;-70
2021/12/26 13:09:50;;;;;;;27.40;22.50;;;;;;;;;;4262266;33;20092;-71
2021/12/26 13:12:18;;;;;;;60.63;47.25;;;;;;;;;;4274799;33;20514;-72
2021/12/26 13:14:58;;;;;;;45.08;37.65;;;;;;;;;;4264552;33;20107;-72
2021/12/26 13:17:28;;;;;;;37.65;30.48;;;;;;;;;;4290567;33;20107;-73
2021/12/26 13:20:06;;;;;;;56.00;49.90;;;;;;;;;;4276907;33;20104;-72
2021/12/26 13:22:40;;;;;;;52.95;47.47;;;;;;;;;;4281214;33;20191;-74
2021/12/26 13:25:09;;;;;;;10.67;9.17;;;;;;;;;;4290221;33;20107;-74
2021/12/26 13:27:35;;;;;;;8.77;7.57;;;;;;;;;;4277179;33;20147;-75
2021/12/26 13:30:02;;;;;;;7.82;6.70;;;;;;;;;;4265773;33;20519;-75
2021/12/26 13:32:40;;;;;;;8.00;6.40;;;;;;;;;;4262321;33;20565;-76
2021/12/26 13:35:07;;;;;;;6.30;5.60;;;;;;;;;;4270737;33;20096;-75
2021/12/26 13:37:34;;;;;;;8.02;7.25;;;;;;;;;;4279346;33;20531;-76
2021/12/26 13:40:02;;;;;;;8.30;6.37;;;;;;;;;;4260484;33;20182;-76
2021/12/26 13:42:28;;;;;;;14.70;12.80;;;;;;;;;;4288379;33;20610;-77
2021/12/26 13:44:54;;;;;;;15.82;14.10;;;;;;;;;;4288215;33;20103;-76
2021/12/26 13:47:20;;;;;;;9.30;8.32;;;;;;;;;;4263166;33;20092;-77
2021/12/26 13:49:47;;;;;;;5.50;5.00;;;;;;;;;;4272605;33;20108;-77
2021/12/26 13:52:18;;;;;;;6.57;4.95;;;;;;;;;;4280316;33;20116;-78
2021/12/26 13:54:52;;;;;;;5.00;4.10;;;;;;;;;;4280827;33;20652;-76
2021/12/26 13:57:23;;;;;;;6.97;5.37;;;;;;;;;;4269722;33;20092;-76
2021/12/26 13:59:55;;;;;;;5.45;4.35;;;;;;;;;;4270234;33;20115;-74
2021/12/26 14:02:27;;;;;;;4.55;4.05;;;;;;;;;;4289717;33;20629;-76
2021/12/26 14:05:01;;;;;;;4.62;4.15;;;;;;;;;;4288512;33;20111;-75
2021/12/26 14:07:30;;;;;;;5.90;4.45;;;;;;;;;;4276586;33;20176;-74
2021/12/26 14:10:00;;;;;;;5.93;4.78;;;;;;;;;;4287910;33;20084;-72
2021/12/26 14:12:49;;;;;;;5.93;4.93;;;;;;;;;;4266838;33;20124;-73
2021/12/26 14:15:33;;;;;;;7.70;5.20;;;;;;;;;;4293839;33;20791;-73
2021/12/26 14:18:17;;;;;;;5.65;5.10;;;;;;;;;;4284042;33;20119;-69
2021/12/26 14:21:02;;;;;;;5.95;4.72;;;;;;;;;;4283671;33;20084;-71
2021/12/26 14:23:39;;;;;;;13.13;5.87;;;;;;;;;;4295932;33;20112;-69
2021/12/26 14:26:08;;;;;;;10.32;5.85;;;;;;;;;;4295273;33;20110;-70
2021/12/26 14:28:42;;;;;;;37.08;23.48;;;;;;;;;;4282283;33;20127;-69
2021/12/26 14:31:08;;;;;;;21.10;15.75;;;;;;;;;;4286723;33;20512;-67
2021/12/26 14:33:49;;;;;;;15.80;12.05;;;;;;;;;;4265258;33;20544;-69
2021/12/26 14:36:16;;;;;;;19.37;15.45;;;;;;;;;;4284554;33;20120;-68
2021/12/26 14:38:52;;;;;;;24.67;18.83;;;;;;;;;;4248922;33;20531;-79
2021/12/26 14:41:19;;;;;;;14.05;9.68;;;;;;;;;;4264153;33;20112;-77
2021/12/26 14:43:45;;;;;;;10.82;8.90;;;;;;;;;;4287139;33;20145;-78
2021/12/26 14:46:12;;;;;;;10.73;7.82;;;;;;;;;;4271652;33;20484;-79
2021/12/26 14:48:41;;;;;;;7.97;6.72;;;;;;;;;;4276501;33;20191;-81
2021/12/26 14:51:16;;;;;;;8.65;7.75;;;;;;;;;;4276962;33;20167;-79
2021/12/26 14:53:53;;;;;;;8.60;6.57;;;;;;;;;;4288550;33;20108;-75
2021/12/26 14:56:19;;;;;;;8.07;6.10;;;;;;;;;;4287817;33;20096;-77
2021/12/26 14:58:47;;;;;;;7.03;6.03;;;;;;;;;;4260540;33;20114;-78
2021/12/26 15:01:26;;;;;;;7.65;6.78;;;;;;;;;;4269647;33;20433;-73
2021/12/26 15:04:05;;;;;;;7.03;6.12;;;;;;;;;;4275459;33;20101;-76
2021/12/26 15:06:31;;;;;;;7.97;6.32;;;;;;;;;;4280471;33;20515;-73
2021/12/26 15:09:00;;;;;;;6.90;5.60;;;;;;;;;;4276218;33;20119;-82
2021/12/26 15:11:29;;;;;;;7.20;6.12;;;;;;;;;;4264654;33;20092;-76
2021/12/26 15:13:55;;;;;;;6.12;5.53;;;;;;;;;;4265030;33;20124;-76
2021/12/26 15:16:27;;;;;;;7.05;5.65;;;;;;;;;;4275888;33;20539;-75